sensor_id;sensor_type;location;lat;lon;timestamp;pressure;altitude;pressure_sealevel;temperature;humidity
11878;BME280;5998;42.676;23.268;2023-12-28T00:02:15;95901.72;;;4.37;100.00
11878;BME280;5998;42.676;23.268;2023-12-28T00:04:43;95895.00;;;4.44;100.00
11878;BME280;5998;42.676;23.268;2023-12-28T00:07:10;95898.72;;;4.43;100.00
11878;BME280;5998;42.676;23.268;2023-12-28T00:09:37;95900.09;;;4.36;100.00
11878;BME280;5998;42.676;23.268;2023-12-28T00:12:04;95904.94;;;4.34;100.00
11878;BME280;5998;42.676;23.268;2023-12-28T00:14:31;95906.78;;;4.33;100.00
11878;BME280;5998;42.676;23.268;2023-12-28T00:16:58;95917.47;;;4.33;100.00
11878;BME280;5998;42.676;23.268;2023-12-28T00:19:24;95916.41;;;4.29;100.00
11878;BME280;5998;42.676;23.268;2023-12-28T00:21:52;95914.81;;;4.28;100.00
11878;BME280;5998;42.676;23.268;2023-12-28T00:24:20;95903.63;;;4.21;100.00
11878;BME280;5998;42.676;23.268;2023-12-28T00:26:47;95914.56;;;4.25;100.00
11878;BME280;5998;42.676;23.268;2023-12-28T00:29:13;95919.63;;;4.21;100.00
11878;BME280;5998;42.676;23.268;2023-12-28T00:31:40;95918.88;;;4.10;100.00
11878;BME280;5998;42.676;23.268;2023-12-28T00:34:07;95912.22;;;4.03;100.00
11878;BME280;5998;42.676;23.268;2023-12-28T00:36:34;95927.38;;;4.12;100.00
11878;BME280;5998;42.676;23.268;2023-12-28T00:39:02;95924.72;;;4.12;100.00
11878;BME280;5998;42.676;23.268;2023-12-28T00:41:29;95912.75;;;4.05;100.00
11878;BME280;5998;42.676;23.268;2023-12-28T00:43:55;95918.31;;;4.18;100.00
11878;BME280;5998;42.676;23.268;2023-12-28T00:46:22;95927.94;;;4.14;100.00
11878;BME280;5998;42.676;23.268;2023-12-28T00:48:48;95929.81;;;4.04;100.00
11878;BME280;5998;42.676;23.268;2023-12-28T00:51:15;95939.91;;;4.07;100.00
11878;BME280;5998;42.676;23.268;2023-12-28T00:53:42;95941.53;;;4.08;100.00
11878;BME280;5998;42.676;23.268;2023-12-28T00:56:10;95951.91;;;4.20;100.00
11878;BME280;5998;42.676;23.268;2023-12-28T00:58:39;95944.97;;;4.13;100.00
11878;BME280;5998;42.676;23.268;2023-12-28T01:01:05;95940.47;;;4.09;100.00
11878;BME280;5998;42.676;23.268;2023-12-28T01:03:32;95951.94;;;4.04;100.00
11878;BME280;5998;42.676;23.268;2023-12-28T01:05:58;95943.44;;;3.97;100.00
11878;BME280;5998;42.676;23.268;2023-12-28T01:08:25;95947.69;;;3.93;100.00
11878;BME280;5998;42.676;23.268;2023-12-28T01:10:52;95935.16;;;3.94;100.00
11878;BME280;5998;42.676;23.268;2023-12-28T01:13:20;95940.22;;;4.00;100.00
11878;BME280;5998;42.676;23.268;2023-12-28T01:15:47;95943.44;;;3.97;100.00
11878;BME280;5998;42.676;23.268;2023-12-28T01:18:13;95942.09;;;3.95;100.00
11878;BME280;5998;42.676;23.268;2023-12-28T01:20:40;95944.78;;;3.95;100.00
11878;BME280;5998;42.676;23.268;2023-12-28T01:23:07;95942.59;;;4.02;100.00
11878;BME280;5998;42.676;23.268;2023-12-28T01:25:33;95941.81;;;4.06;100.00
11878;BME280;5998;42.676;23.268;2023-12-28T01:28:01;95938.09;;;3.97;100.00
11878;BME280;5998;42.676;23.268;2023-12-28T01:30:29;95937.31;;;3.92;100.00
11878;BME280;5998;42.676;23.268;2023-12-28T01:32:55;95940.00;;;3.87;100.00
11878;BME280;5998;42.676;23.268;2023-12-28T01:35:22;95940.22;;;3.90;100.00
11878;BME280;5998;42.676;23.268;2023-12-28T01:37:49;95932.78;;;3.92;100.00
11878;BME280;5998;42.676;23.268;2023-12-28T01:40:15;95927.69;;;3.96;100.00
11878;BME280;5998;42.676;23.268;2023-12-28T01:42:42;95925.31;;;3.94;100.00
11878;BME280;5998;42.676;23.268;2023-12-28T01:45:09;95925.59;;;3.88;100.00
11878;BME280;5998;42.676;23.268;2023-12-28T01:47:37;95923.22;;;3.71;100.00
11878;BME280;5998;42.676;23.268;2023-12-28T01:50:06;95927.53;;;3.57;100.00
11878;BME280;5998;42.676;23.268;2023-12-28T01:52:33;95924.31;;;3.55;100.00
11878;BME280;5998;42.676;23.268;2023-12-28T01:55:00;95927.50;;;3.62;100.00
11878;BME280;5998;42.676;23.268;2023-12-28T01:57:27;95923.25;;;3.61;100.00
11878;BME280;5998;42.676;23.268;2023-12-28T01:59:54;95923.50;;;3.70;100.00
11878;BME280;5998;42.676;23.268;2023-12-28T02:02:22;95924.81;;;3.72;100.00
11878;BME280;5998;42.676;23.268;2023-12-28T02:04:50;95929.34;;;3.67;100.00
11878;BME280;5998;42.676;23.268;2023-12-28T02:07:18;95923.78;;;3.58;100.00
11878;BME280;5998;42.676;23.268;2023-12-28T02:09:46;95930.44;;;3.50;100.00
11878;BME280;5998;42.676;23.268;2023-12-28T02:12:13;95928.31;;;3.52;100.00
11878;BME280;5998;42.676;23.268;2023-12-28T02:14:40;95923.78;;;3.38;100.00
11878;BME280;5998;42.676;23.268;2023-12-28T02:17:10;95921.69;;;3.35;100.00
11878;BME280;5998;42.676;23.268;2023-12-28T02:19:45;95921.13;;;3.33;100.00
11878;BME280;5998;42.676;23.268;2023-12-28T02:22:15;95927.53;;;3.32;100.00
11878;BME280;5998;42.676;23.268;2023-12-28T02:25:07;95924.88;;;3.27;100.00
11878;BME280;5998;42.676;23.268;2023-12-28T02:27:35;95923.00;;;3.32;100.00
11878;BME280;5998;42.676;23.268;2023-12-28T02:30:04;95919.56;;;3.27;100.00
11878;BME280;5998;42.676;23.268;2023-12-28T02:32:49;95917.66;;;3.22;100.00
11878;BME280;5998;42.676;23.268;2023-12-28T02:35:23;95923.00;;;3.12;100.00
11878;BME280;5998;42.676;23.268;2023-12-28T02:37:51;95934.94;;;2.84;100.00
11878;BME280;5998;42.676;23.268;2023-12-28T02:40:22;95933.50;;;2.47;100.00
11878;BME280;5998;42.676;23.268;2023-12-28T02:42:50;95929.56;;;2.64;100.00
11878;BME280;5998;42.676;23.268;2023-12-28T02:45:17;95928.53;;;2.75;100.00
11878;BME280;5998;42.676;23.268;2023-12-28T02:47:44;95927.19;;;2.78;100.00
11878;BME280;5998;42.676;23.268;2023-12-28T02:50:11;95922.97;;;2.87;100.00
11878;BME280;5998;42.676;23.268;2023-12-28T02:52:37;95923.25;;;2.90;100.00
11878;BME280;5998;42.676;23.268;2023-12-28T02:55:05;95920.06;;;2.93;100.00
11878;BME280;5998;42.676;23.268;2023-12-28T02:57:33;95926.44;;;2.97;100.00
11878;BME280;5998;42.676;23.268;2023-12-28T03:00:05;95930.13;;;2.86;100.00
11878;BME280;5998;42.676;23.268;2023-12-28T03:02:34;95917.59;;;2.67;100.00
11878;BME280;5998;42.676;23.268;2023-12-28T03:05:00;95921.06;;;2.72;100.00
11878;BME280;5998;42.676;23.268;2023-12-28T03:07:27;95909.38;;;2.73;100.00
11878;BME280;5998;42.676;23.268;2023-12-28T03:09:54;95916.31;;;2.74;100.00
11878;BME280;5998;42.676;23.268;2023-12-28T03:12:20;95896.31;;;2.57;100.00
11878;BME280;5998;42.676;23.268;2023-12-28T03:14:49;95890.47;;;2.60;100.00
11878;BME280;5998;42.676;23.268;2023-12-28T03:17:15;95907.75;;;2.57;100.00
11878;BME280;5998;42.676;23.268;2023-12-28T03:19:42;95904.81;;;2.59;100.00
11878;BME280;5998;42.676;23.268;2023-12-28T03:22:09;95909.84;;;2.50;100.00
11878;BME280;5998;42.676;23.268;2023-12-28T03:24:36;95908.28;;;2.54;100.00
11878;BME280;5998;42.676;23.268;2023-12-28T03:27:03;95908.50;;;2.48;100.00
11878;BME280;5998;42.676;23.268;2023-12-28T03:29:30;95903.47;;;2.46;100.00
11878;BME280;5998;42.676;23.268;2023-12-28T03:31:58;95903.47;;;2.56;100.00
11878;BME280;5998;42.676;23.268;2023-12-28T03:34:25;95907.75;;;2.57;100.00
11878;BME280;5998;42.676;23.268;2023-12-28T03:36:54;95910.94;;;2.54;100.00
11878;BME280;5998;42.676;23.268;2023-12-28T03:39:22;95924.22;;;2.54;100.00
11878;BME280;5998;42.676;23.268;2023-12-28T03:41:49;95920.44;;;2.40;100.00
11878;BME280;5998;42.676;23.268;2023-12-28T03:44:16;95921.78;;;2.43;100.00
11878;BME280;5998;42.676;23.268;2023-12-28T03:46:42;95931.59;;;2.37;100.00
11878;BME280;5998;42.676;23.268;2023-12-28T03:49:10;95935.88;;;2.38;100.00
11878;BME280;5998;42.676;23.268;2023-12-28T03:51:37;95939.84;;;2.30;100.00
11878;BME280;5998;42.676;23.268;2023-12-28T03:54:04;95946.72;;;2.31;100.00
11878;BME280;5998;42.676;23.268;2023-12-28T03:56:30;95948.38;;;2.43;100.00
11878;BME280;5998;42.676;23.268;2023-12-28T03:58:58;95935.13;;;2.53;100.00
11878;BME280;5998;42.676;23.268;2023-12-28T04:01:25;95933.75;;;2.45;100.00
11878;BME280;5998;42.676;23.268;2023-12-28T04:03:51;95936.69;;;2.38;100.00
11878;BME280;5998;42.676;23.268;2023-12-28T04:06:19;95944.94;;;2.47;100.00
11878;BME280;5998;42.676;23.268;2023-12-28T04:08:46;95944.41;;;2.50;100.00
11878;BME280;5998;42.676;23.268;2023-12-28T04:11:13;95938.84;;;2.52;100.00
11878;BME280;5998;42.676;23.268;2023-12-28T04:13:39;95942.56;;;2.56;100.00
11878;BME280;5998;42.676;23.268;2023-12-28T04:16:06;95935.38;;;2.56;100.00
11878;BME280;5998;42.676;23.268;2023-12-28T04:18:35;95937.03;;;2.72;100.00
11878;BME280;5998;42.676;23.268;2023-12-28T04:21:01;95941.81;;;2.75;100.00
11878;BME280;5998;42.676;23.268;2023-12-28T04:23:29;95944.22;;;2.77;100.00
11878;BME280;5998;42.676;23.268;2023-12-28T04:25:58;95940.78;;;2.76;100.00
11878;BME280;5998;42.676;23.268;2023-12-28T04:28:24;95937.59;;;2.79;100.00
11878;BME280;5998;42.676;23.268;2023-12-28T04:30:51;95939.16;;;2.80;100.00
11878;BME280;5998;42.676;23.268;2023-12-28T04:33:18;95939.16;;;2.75;100.00
11878;BME280;5998;42.676;23.268;2023-12-28T04:35:45;95936.50;;;2.75;100.00
11878;BME280;5998;42.676;23.268;2023-12-28T04:38:12;95941.81;;;2.75;100.00
11878;BME280;5998;42.676;23.268;2023-12-28T04:40:40;95933.06;;;2.85;100.00
11878;BME280;5998;42.676;23.268;2023-12-28T04:43:07;95933.84;;;2.80;100.00
11878;BME280;5998;42.676;23.268;2023-12-28T04:45:34;95945.03;;;2.77;100.00
11878;BME280;5998;42.676;23.268;2023-12-28T04:48:00;95934.41;;;2.82;100.00
11878;BME280;5998;42.676;23.268;2023-12-28T04:50:27;95941.56;;;2.82;100.00
11878;BME280;5998;42.676;23.268;2023-12-28T04:52:55;95934.41;;;2.77;100.00
11878;BME280;5998;42.676;23.268;2023-12-28T04:55:21;95929.06;;;2.77;100.00
11878;BME280;5998;42.676;23.268;2023-12-28T04:57:51;95935.72;;;2.80;100.00
11878;BME280;5998;42.676;23.268;2023-12-28T05:00:18;95926.94;;;2.79;100.00
11878;BME280;5998;42.676;23.268;2023-12-28T05:02:44;95931.19;;;2.70;100.00
11878;BME280;5998;42.676;23.268;2023-12-28T05:05:12;95927.47;;;2.81;100.00
11878;BME280;5998;42.676;23.268;2023-12-28T05:07:38;95930.41;;;2.80;100.00
11878;BME280;5998;42.676;23.268;2023-12-28T05:10:06;95937.81;;;2.68;100.00
11878;BME280;5998;42.676;23.268;2023-12-28T05:12:33;95937.00;;;2.62;100.00
11878;BME280;5998;42.676;23.268;2023-12-28T05:15:01;95929.84;;;2.68;100.00
11878;BME280;5998;42.676;23.268;2023-12-28T05:17:28;95932.78;;;2.71;100.00
11878;BME280;5998;42.676;23.268;2023-12-28T05:19:54;95932.50;;;2.78;100.00
11878;BME280;5998;42.676;23.268;2023-12-28T05:22:22;95934.41;;;2.77;100.00
11878;BME280;5998;42.676;23.268;2023-12-28T05:24:49;95950.31;;;2.72;100.00
11878;BME280;5998;42.676;23.268;2023-12-28T05:27:15;95931.69;;;2.67;100.00
11878;BME280;5998;42.676;23.268;2023-12-28T05:29:42;95932.22;;;2.64;100.00
11878;BME280;5998;42.676;23.268;2023-12-28T05:32:10;95932.22;;;2.59;100.00
11878;BME280;5998;42.676;23.268;2023-12-28T05:34:37;95937.53;;;2.59;100.00
11878;BME280;5998;42.676;23.268;2023-12-28T05:37:04;95939.94;;;2.61;100.00
11878;BME280;5998;42.676;23.268;2023-12-28T05:39:30;95946.06;;;2.66;100.00
11878;BME280;5998;42.676;23.268;2023-12-28T05:41:57;95946.06;;;2.66;100.00
11878;BME280;5998;42.676;23.268;2023-12-28T05:44:23;95953.13;;;2.35;100.00
11878;BME280;5998;42.676;23.268;2023-12-28T05:46:50;95952.56;;;2.28;100.00
11878;BME280;5998;42.676;23.268;2023-12-28T05:49:19;95950.97;;;2.22;100.00
11878;BME280;5998;42.676;23.268;2023-12-28T05:51:45;95955.72;;;2.25;100.00
11878;BME280;5998;42.676;23.268;2023-12-28T05:54:12;95960.28;;;2.30;100.00
11878;BME280;5998;42.676;23.268;2023-12-28T05:56:39;95963.50;;;2.37;100.00
11878;BME280;5998;42.676;23.268;2023-12-28T05:59:05;95961.94;;;2.46;100.00
11878;BME280;5998;42.676;23.268;2023-12-28T06:01:32;95955.31;;;2.49;100.00
11878;BME280;5998;42.676;23.268;2023-12-28T06:03:59;95965.94;;;2.49;100.00
11878;BME280;5998;42.676;23.268;2023-12-28T06:06:27;95964.91;;;2.55;100.00
11878;BME280;5998;42.676;23.268;2023-12-28T06:08:53;95969.44;;;2.59;100.00
11878;BME280;5998;42.676;23.268;2023-12-28T06:11:20;95966.47;;;2.56;100.00
11878;BME280;5998;42.676;23.268;2023-12-28T06:13:47;95972.34;;;2.53;100.00
11878;BME280;5998;42.676;23.268;2023-12-28T06:16:13;95969.19;;;2.61;100.00
11878;BME280;5998;42.676;23.268;2023-12-28T06:18:40;95967.06;;;2.68;100.00
11878;BME280;5998;42.676;23.268;2023-12-28T06:21:07;95963.59;;;2.67;100.00
11878;BME280;5998;42.676;23.268;2023-12-28T06:23:35;95964.13;;;2.64;100.00
11878;BME280;5998;42.676;23.268;2023-12-28T06:26:06;95968.13;;;2.67;100.00
11878;BME280;5998;42.676;23.268;2023-12-28T06:28:33;95963.38;;;2.79;100.00
11878;BME280;5998;42.676;23.268;2023-12-28T06:31:00;95961.53;;;2.89;100.00
11878;BME280;5998;42.676;23.268;2023-12-28T06:33:28;95964.72;;;2.91;100.00
11878;BME280;5998;42.676;23.268;2023-12-28T06:35:55;95963.66;;;2.82;100.00
11878;BME280;5998;42.676;23.268;2023-12-28T06:38:23;95969.53;;;2.99;100.00
11878;BME280;5998;42.676;23.268;2023-12-28T06:40:51;95957.59;;;3.07;100.00
11878;BME280;5998;42.676;23.268;2023-12-28T06:43:18;95970.09;;;3.22;100.00
11878;BME280;5998;42.676;23.268;2023-12-28T06:45:44;95981.00;;;3.25;100.00
11878;BME280;5998;42.676;23.268;2023-12-28T06:48:12;95970.91;;;3.22;100.00
11878;BME280;5998;42.676;23.268;2023-12-28T06:50:38;95978.88;;;3.22;100.00
11878;BME280;5998;42.676;23.268;2023-12-28T06:53:05;95979.69;;;3.23;100.00
11878;BME280;5998;42.676;23.268;2023-12-28T06:55:32;95968.00;;;3.24;100.00
11878;BME280;5998;42.676;23.268;2023-12-28T06:58:01;95984.22;;;3.27;100.00
11878;BME280;5998;42.676;23.268;2023-12-28T07:00:28;95974.09;;;3.39;100.00
11878;BME280;5998;42.676;23.268;2023-12-28T07:02:55;95978.13;;;3.57;100.00
11878;BME280;5998;42.676;23.268;2023-12-28T07:05:21;95984.22;;;3.68;100.00
11878;BME280;5998;42.676;23.268;2023-12-28T07:07:48;95984.22;;;3.63;100.00
11878;BME280;5998;42.676;23.268;2023-12-28T07:10:15;95982.38;;;3.53;100.00
11878;BME280;5998;42.676;23.268;2023-12-28T07:12:41;95983.13;;;3.74;100.00
11878;BME280;5998;42.676;23.268;2023-12-28T07:15:10;95945.06;;;3.68;100.00
11878;BME280;5998;42.676;23.268;2023-12-28T07:17:39;95984.47;;;3.71;100.00
11878;BME280;5998;42.676;23.268;2023-12-28T07:20:07;95983.97;;;3.69;100.00
11878;BME280;5998;42.676;23.268;2023-12-28T07:22:36;95978.06;;;3.82;100.00
11878;BME280;5998;42.676;23.268;2023-12-28T07:25:04;95980.75;;;3.72;100.00
11878;BME280;5998;42.676;23.268;2023-12-28T07:27:31;95984.75;;;3.70;100.00
11878;BME280;5998;42.676;23.268;2023-12-28T07:29:57;95982.88;;;3.80;100.00
11878;BME280;5998;42.676;23.268;2023-12-28T07:32:25;95985.81;;;3.89;100.00
11878;BME280;5998;42.676;23.268;2023-12-28T07:34:52;95979.34;;;4.15;100.00
11878;BME280;5998;42.676;23.268;2023-12-28T07:37:19;95988.16;;;4.15;100.00
11878;BME280;5998;42.676;23.268;2023-12-28T07:39:46;95984.38;;;4.32;100.00
11878;BME280;5998;42.676;23.268;2023-12-28T07:42:13;95981.94;;;4.50;100.00
11878;BME280;5998;42.676;23.268;2023-12-28T07:44:40;95985.56;;;4.74;100.00
11878;BME280;5998;42.676;23.268;2023-12-28T07:47:07;95972.91;;;4.95;100.00
11878;BME280;5998;42.676;23.268;2023-12-28T07:49:35;95973.75;;;4.86;100.00
11878;BME280;5998;42.676;23.268;2023-12-28T07:52:02;95976.31;;;5.06;100.00
11878;BME280;5998;42.676;23.268;2023-12-28T07:54:28;95981.75;;;4.91;100.00
11878;BME280;5998;42.676;23.268;2023-12-28T07:56:55;95986.09;;;5.20;100.00
11878;BME280;5998;42.676;23.268;2023-12-28T07:59:22;95985.59;;;5.52;100.00
11878;BME280;5998;42.676;23.268;2023-12-28T08:01:48;95989.94;;;5.77;100.00
11878;BME280;5998;42.676;23.268;2023-12-28T08:04:15;95987.06;;;6.02;100.00
11878;BME280;5998;42.676;23.268;2023-12-28T08:06:43;95980.19;;;6.25;100.00
11878;BME280;5998;42.676;23.268;2023-12-28T08:09:10;95974.41;;;6.13;100.00
11878;BME280;5998;42.676;23.268;2023-12-28T08:11:37;95982.63;;;6.45;100.00
11878;BME280;5998;42.676;23.268;2023-12-28T08:14:04;95972.31;;;6.33;100.00
11878;BME280;5998;42.676;23.268;2023-12-28T08:16:31;95968.78;;;6.38;100.00
11878;BME280;5998;42.676;23.268;2023-12-28T08:18:58;95963.31;;;6.24;100.00
11878;BME280;5998;42.676;23.268;2023-12-28T08:21:25;95960.59;;;6.29;100.00
11878;BME280;5998;42.676;23.268;2023-12-28T08:23:53;95963.44;;;6.38;100.00
11878;BME280;5998;42.676;23.268;2023-12-28T08:26:19;95959.81;;;6.29;100.00
11878;BME280;5998;42.676;23.268;2023-12-28T08:28:46;95950.44;;;6.31;100.00
11878;BME280;5998;42.676;23.268;2023-12-28T08:31:13;95955.56;;;5.99;100.00
11878;BME280;5998;42.676;23.268;2023-12-28T08:33:40;95958.94;;;6.10;100.00
11878;BME280;5998;42.676;23.268;2023-12-28T08:36:08;95967.78;;;6.34;100.00
11878;BME280;5998;42.676;23.268;2023-12-28T08:38:35;95960.38;;;6.49;100.00
11878;BME280;5998;42.676;23.268;2023-12-28T08:41:04;95957.53;;;6.41;100.00
11878;BME280;5998;42.676;23.268;2023-12-28T08:43:34;95963.63;;;6.46;100.00
11878;BME280;5998;42.676;23.268;2023-12-28T08:46:01;95952.22;;;6.36;100.00
11878;BME280;5998;42.676;23.268;2023-12-28T08:48:28;95955.09;;;6.44;100.00
11878;BME280;5998;42.676;23.268;2023-12-28T08:50:54;95950.00;;;6.67;100.00
11878;BME280;5998;42.676;23.268;2023-12-28T08:53:21;95931.69;;;6.74;100.00
11878;BME280;5998;42.676;23.268;2023-12-28T08:55:48;95929.19;;;7.01;100.00
11878;BME280;5998;42.676;23.268;2023-12-28T08:58:16;95922.38;;;7.27;100.00
11878;BME280;5998;42.676;23.268;2023-12-28T09:00:42;95929.66;;;7.40;100.00
11878;BME280;5998;42.676;23.268;2023-12-28T09:03:10;95926.16;;;7.58;100.00
11878;BME280;5998;42.676;23.268;2023-12-28T09:05:37;95924.31;;;7.72;100.00
11878;BME280;5998;42.676;23.268;2023-12-28T09:08:05;95920.03;;;7.39;100.00
11878;BME280;5998;42.676;23.268;2023-12-28T09:10:31;95909.47;;;7.29;100.00
11878;BME280;5998;42.676;23.268;2023-12-28T09:12:58;95913.78;;;7.62;100.00
11878;BME280;5998;42.676;23.268;2023-12-28T09:15:26;95911.50;;;7.69;100.00
11878;BME280;5998;42.676;23.268;2023-12-28T09:17:53;95902.81;;;7.59;100.00
11878;BME280;5998;42.676;23.268;2023-12-28T09:20:20;95901.97;;;7.63;100.00
11878;BME280;5998;42.676;23.268;2023-12-28T09:22:46;95895.81;;;7.63;100.00
11878;BME280;5998;42.676;23.268;2023-12-28T09:25:18;95895.16;;;7.39;100.00
11878;BME280;5998;42.676;23.268;2023-12-28T09:27:45;95890.38;;;7.36;100.00
11878;BME280;5998;42.676;23.268;2023-12-28T09:30:12;95886.31;;;7.38;100.00
11878;BME280;5998;42.676;23.268;2023-12-28T09:32:40;95872.06;;;7.56;100.00
11878;BME280;5998;42.676;23.268;2023-12-28T09:35:07;95875.66;;;7.65;100.00
11878;BME280;5998;42.676;23.268;2023-12-28T09:37:34;95869.19;;;7.66;100.00
11878;BME280;5998;42.676;23.268;2023-12-28T09:40:01;95865.78;;;7.61;100.00
11878;BME280;5998;42.676;23.268;2023-12-28T09:42:32;95864.75;;;7.76;100.00
11878;BME280;5998;42.676;23.268;2023-12-28T09:45:04;95864.06;;;8.11;100.00
11878;BME280;5998;42.676;23.268;2023-12-28T09:47:32;95853.91;;;7.81;100.00
11878;BME280;5998;42.676;23.268;2023-12-28T09:50:00;95854.84;;;7.90;100.00
11878;BME280;5998;42.676;23.268;2023-12-28T09:52:27;95850.38;;;7.99;100.00
11878;BME280;5998;42.676;23.268;2023-12-28T09:54:54;95844.00;;;8.22;100.00
11878;BME280;5998;42.676;23.268;2023-12-28T09:57:20;95844.00;;;8.49;100.00
11878;BME280;5998;42.676;23.268;2023-12-28T09:59:49;95836.53;;;8.46;100.00
11878;BME280;5998;42.676;23.268;2023-12-28T10:02:15;95832.88;;;8.42;100.00
11878;BME280;5998;42.676;23.268;2023-12-28T10:04:43;95821.25;;;8.33;100.00
11878;BME280;5998;42.676;23.268;2023-12-28T10:07:11;95819.13;;;8.57;100.00
11878;BME280;5998;42.676;23.268;2023-12-28T10:09:38;95813.66;;;8.62;100.00
11878;BME280;5998;42.676;23.268;2023-12-28T10:12:05;95825.00;;;8.95;100.00
11878;BME280;5998;42.676;23.268;2023-12-28T10:14:32;95809.00;;;9.12;100.00
11878;BME280;5998;42.676;23.268;2023-12-28T10:16:59;95810.44;;;9.40;100.00
11878;BME280;5998;42.676;23.268;2023-12-28T10:19:26;95802.00;;;9.64;100.00
11878;BME280;5998;42.676;23.268;2023-12-28T10:21:52;95804.31;;;9.48;100.00
11878;BME280;5998;42.676;23.268;2023-12-28T10:24:20;95788.38;;;9.52;100.00
11878;BME280;5998;42.676;23.268;2023-12-28T10:26:47;95783.19;;;9.64;100.00
11878;BME280;5998;42.676;23.268;2023-12-28T10:29:14;95775.81;;;9.78;100.00
11878;BME280;5998;42.676;23.268;2023-12-28T10:31:42;95765.75;;;9.92;100.00
11878;BME280;5998;42.676;23.268;2023-12-28T10:34:09;95765.44;;;9.94;100.00
11878;BME280;5998;42.676;23.268;2023-12-28T10:36:36;95762.84;;;9.72;100.00
11878;BME280;5998;42.676;23.268;2023-12-28T10:39:05;95755.16;;;9.57;100.00
11878;BME280;5998;42.676;23.268;2023-12-28T10:41:36;95754.03;;;9.88;100.00
11878;BME280;5998;42.676;23.268;2023-12-28T10:44:05;95736.47;;;9.91;100.00
11878;BME280;5998;42.676;23.268;2023-12-28T10:46:33;95741.25;;;9.55;100.00
11878;BME280;5998;42.676;23.268;2023-12-28T10:49:05;95736.09;;;9.75;100.00
11878;BME280;5998;42.676;23.268;2023-12-28T10:51:36;95732.09;;;9.64;100.00
11878;BME280;5998;42.676;23.268;2023-12-28T10:54:16;95737.16;;;9.57;100.00
11878;BME280;5998;42.676;23.268;2023-12-28T10:56:52;95735.13;;;9.63;100.00
11878;BME280;5998;42.676;23.268;2023-12-28T10:59:32;95730.13;;;9.39;100.00
11878;BME280;5998;42.676;23.268;2023-12-28T11:02:03;95722.44;;;9.24;100.00
11878;BME280;5998;42.676;23.268;2023-12-28T11:04:34;95724.34;;;9.23;100.00
11878;BME280;5998;42.676;23.268;2023-12-28T11:07:05;95718.66;;;9.25;100.00
11878;BME280;5998;42.676;23.268;2023-12-28T11:09:34;95715.78;;;9.21;100.00
11878;BME280;5998;42.676;23.268;2023-12-28T11:12:04;95697.91;;;9.56;100.00
11878;BME280;5998;42.676;23.268;2023-12-28T11:14:34;95706.16;;;9.60;100.00
11878;BME280;5998;42.676;23.268;2023-12-28T11:17:01;95691.13;;;9.59;100.00
11878;BME280;5998;42.676;23.268;2023-12-28T11:19:29;95689.75;;;9.78;100.00
11878;BME280;5998;42.676;23.268;2023-12-28T11:21:57;95689.47;;;9.88;100.00
11878;BME280;5998;42.676;23.268;2023-12-28T11:24:26;95689.16;;;9.98;100.00
11878;BME280;5998;42.676;23.268;2023-12-28T11:26:53;95680.63;;;9.96;100.00
11878;BME280;5998;42.676;23.268;2023-12-28T11:29:22;95679.22;;;9.99;100.00
11878;BME280;5998;42.676;23.268;2023-12-28T11:31:51;95675.91;;;10.02;100.00
11878;BME280;5998;42.676;23.268;2023-12-28T11:34:17;95663.75;;;10.13;100.00
11878;BME280;5998;42.676;23.268;2023-12-28T11:36:48;95658.38;;;10.22;100.00
11878;BME280;5998;42.676;23.268;2023-12-28T11:39:20;95651.69;;;10.28;100.00
11878;BME280;5998;42.676;23.268;2023-12-28T11:41:59;95651.88;;;10.40;100.00
11878;BME280;5998;42.676;23.268;2023-12-28T11:44:29;95652.50;;;10.37;100.00
11878;BME280;5998;42.676;23.268;2023-12-28T11:46:56;95649.47;;;10.38;100.00
11878;BME280;5998;42.676;23.268;2023-12-28T11:49:25;95653.94;;;10.26;100.00
11878;BME280;5998;42.676;23.268;2023-12-28T11:51:55;95651.22;;;10.26;100.00
11878;BME280;5998;42.676;23.268;2023-12-28T11:54:23;95646.94;;;10.33;100.00
11878;BME280;5998;42.676;23.268;2023-12-28T11:56:49;95648.06;;;10.32;100.00
11878;BME280;5998;42.676;23.268;2023-12-28T11:59:16;95639.19;;;10.57;100.00
11878;BME280;5998;42.676;23.268;2023-12-28T12:01:49;95646.44;;;10.74;100.00
11878;BME280;5998;42.676;23.268;2023-12-28T12:04:16;95644.88;;;10.64;100.00
11878;BME280;5998;42.676;23.268;2023-12-28T12:06:42;95644.69;;;10.78;100.00
11878;BME280;5998;42.676;23.268;2023-12-28T12:09:11;95628.44;;;10.57;100.00
11878;BME280;5998;42.676;23.268;2023-12-28T12:11:37;95631.38;;;10.82;100.00
11878;BME280;5998;42.676;23.268;2023-12-28T12:14:08;95624.41;;;10.72;100.00
11878;BME280;5998;42.676;23.268;2023-12-28T12:16:35;95612.13;;;11.00;100.00
11878;BME280;5998;42.676;23.268;2023-12-28T12:19:03;95612.41;;;11.07;100.00
11878;BME280;5998;42.676;23.268;2023-12-28T12:21:30;95613.84;;;11.05;100.00
11878;BME280;5998;42.676;23.268;2023-12-28T12:23:57;95611.03;;;11.01;100.00
11878;BME280;5998;42.676;23.268;2023-12-28T12:26:23;95619.25;;;11.05;100.00
11878;BME280;5998;42.676;23.268;2023-12-28T12:28:51;95617.06;;;10.98;100.00
11878;BME280;5998;42.676;23.268;2023-12-28T12:31:18;95612.84;;;11.18;100.00
11878;BME280;5998;42.676;23.268;2023-12-28T12:33:46;95619.03;;;11.18;100.00
11878;BME280;5998;42.676;23.268;2023-12-28T12:36:14;95634.50;;;11.01;100.00
11878;BME280;5998;42.676;23.268;2023-12-28T12:38:40;95635.63;;;10.83;100.00
11878;BME280;5998;42.676;23.268;2023-12-28T12:41:10;95626.38;;;11.09;100.00
11878;BME280;5998;42.676;23.268;2023-12-28T12:43:37;95625.28;;;11.02;100.00
11878;BME280;5998;42.676;23.268;2023-12-28T12:46:04;95617.03;;;11.07;100.00
11878;BME280;5998;42.676;23.268;2023-12-28T12:48:31;95621.53;;;11.32;100.00
11878;BME280;5998;42.676;23.268;2023-12-28T12:50:57;95618.09;;;11.52;100.00
11878;BME280;5998;42.676;23.268;2023-12-28T12:53:32;95617.34;;;11.81;100.00
11878;BME280;5998;42.676;23.268;2023-12-28T12:55:59;95614.91;;;11.88;100.00
11878;BME280;5998;42.676;23.268;2023-12-28T12:58:26;95612.09;;;12.05;100.00
11878;BME280;5998;42.676;23.268;2023-12-28T13:00:56;95606.13;;;12.12;100.00
11878;BME280;5998;42.676;23.268;2023-12-28T13:03:22;95604.78;;;12.06;100.00